createdAt,value
2019-05-13T00:00:14.948Z,2.00
2019-05-13T00:02:43.938Z,1.82
2019-05-13T00:05:14.746Z,1.72
2019-05-13T00:07:43.891Z,1.92
2019-05-13T00:10:14.650Z,2.00
2019-05-13T00:12:44.732Z,2.22
2019-05-13T00:15:14.212Z,2.37
2019-05-13T00:17:44.656Z,1.95
2019-05-13T00:20:14.171Z,2.00
2019-05-13T00:22:44.810Z,2.10
2019-05-13T00:25:14.526Z,2.00
2019-05-13T00:27:44.529Z,2.30
2019-05-13T00:30:14.511Z,2.05
2019-05-13T00:32:44.554Z,2.00
2019-05-13T00:35:14.151Z,1.92
2019-05-13T00:37:44.378Z,2.45
2019-05-13T00:40:14.437Z,2.47
2019-05-13T00:42:44.131Z,2.05
2019-05-13T00:45:14.544Z,2.55
2019-05-13T00:47:43.760Z,2.17
2019-05-13T00:50:14.237Z,2.12
2019-05-13T00:52:44.835Z,2.35
2019-05-13T00:55:14.777Z,2.15
2019-05-13T00:57:43.964Z,1.95
2019-05-13T01:00:14.114Z,2.22
2019-05-13T01:02:44.638Z,2.55
2019-05-13T01:05:14.649Z,2.72
2019-05-13T01:07:44.440Z,2.50
2019-05-13T01:10:13.646Z,2.42
2019-05-13T01:12:44.023Z,2.50
2019-05-13T01:15:13.551Z,2.67
2019-05-13T01:17:44.733Z,2.42
2019-05-13T01:20:14.455Z,2.33
2019-05-13T01:22:44.156Z,2.17
2019-05-13T01:25:14.431Z,2.17
2019-05-13T01:27:44.296Z,2.30
2019-05-13T01:30:13.875Z,2.58
2019-05-13T01:32:44.894Z,2.35
2019-05-13T01:35:14.875Z,2.30
2019-05-13T01:37:46.053Z,2.65
2019-05-13T01:40:14.587Z,2.40
2019-05-13T01:42:44.464Z,2.72
2019-05-13T01:45:13.998Z,2.80
2019-05-13T01:47:44.066Z,3.20
2019-05-13T01:50:14.286Z,2.77
2019-05-13T01:52:44.514Z,2.50
2019-05-13T01:55:14.603Z,2.52
2019-05-13T01:57:44.384Z,2.60
2019-05-13T02:00:14.202Z,2.55
2019-05-13T02:02:44.597Z,2.20
2019-05-13T02:05:14.195Z,3.08
2019-05-13T02:07:54.493Z,3.02
2019-05-13T02:10:16.429Z,2.65
2019-05-13T02:12:45.000Z,3.15
2019-05-13T02:15:14.838Z,2.60
2019-05-13T02:17:44.822Z,3.05
2019-05-13T02:20:14.939Z,2.95
2019-05-13T02:22:44.526Z,3.45
2019-05-13T02:25:13.870Z,3.12
2019-05-13T02:27:43.985Z,2.92
2019-05-13T02:30:16.249Z,3.12
2019-05-13T02:32:43.367Z,3.00
2019-05-13T02:35:14.093Z,3.70
2019-05-13T02:37:43.423Z,2.98
2019-05-13T02:40:13.481Z,3.05
2019-05-13T02:42:43.667Z,3.27
2019-05-13T02:45:12.784Z,3.47
2019-05-13T02:47:44.357Z,3.50
2019-05-13T02:50:12.640Z,3.50
2019-05-13T02:52:44.446Z,2.98
2019-05-13T02:55:12.854Z,3.22
2019-05-13T02:57:43.662Z,2.72
2019-05-13T03:00:13.005Z,3.37
2019-05-13T03:02:43.806Z,2.85
2019-05-13T03:05:13.735Z,3.42
2019-05-13T03:07:43.257Z,3.20
2019-05-13T03:10:13.939Z,3.10
2019-05-13T03:12:43.003Z,3.50
2019-05-13T03:15:13.302Z,3.70
2019-05-13T03:17:52.921Z,3.65
2019-05-13T03:20:22.875Z,3.58
2019-05-13T03:22:52.707Z,3.20
2019-05-13T03:25:22.613Z,3.87
2019-05-13T03:27:54.120Z,3.22
2019-05-13T03:30:25.117Z,3.95
2019-05-13T03:32:59.844Z,3.42
2019-05-13T03:35:26.746Z,3.20
2019-05-13T03:37:53.568Z,3.40
2019-05-13T03:40:23.092Z,3.72
2019-05-13T03:42:53.702Z,3.40
2019-05-13T03:45:24.844Z,4.05
2019-05-13T03:47:55.808Z,4.30
2019-05-13T03:50:24.441Z,4.00
2019-05-13T03:52:52.951Z,4.30
2019-05-13T03:55:23.358Z,3.85
2019-05-13T03:57:53.343Z,3.72
2019-05-13T04:00:23.472Z,3.92
2019-05-13T04:02:53.117Z,4.25
2019-05-13T04:05:23.408Z,4.42
2019-05-13T04:07:52.712Z,4.10
2019-05-13T04:10:22.920Z,4.35
2019-05-13T04:12:52.970Z,4.42
2019-05-13T04:15:23.791Z,5.90
2019-05-13T04:17:53.286Z,5.53
2019-05-13T04:20:23.368Z,5.58
2019-05-13T04:22:53.105Z,6.15
2019-05-13T04:25:23.321Z,5.12
2019-05-13T04:27:53.358Z,5.67
2019-05-13T04:30:22.691Z,5.22
2019-05-13T04:32:53.403Z,4.55
2019-05-13T04:35:23.472Z,4.20
2019-05-13T04:37:53.059Z,4.72
2019-05-13T04:40:23.019Z,5.03
2019-05-13T04:42:53.345Z,4.90
2019-05-13T04:45:23.928Z,5.67
2019-05-13T04:47:53.133Z,4.97
2019-05-13T04:50:22.702Z,4.85
2019-05-13T04:52:53.009Z,5.00
2019-05-13T04:55:22.884Z,5.45
2019-05-13T04:57:53.176Z,5.78
2019-05-13T05:00:43.205Z,5.22
2019-05-13T05:03:44.762Z,4.72
2019-05-13T05:06:14.268Z,4.83
2019-05-13T05:09:05.178Z,4.22
2019-05-13T05:11:42.399Z,4.05
2019-05-13T05:14:18.422Z,5.22
2019-05-13T05:17:15.590Z,4.17
2019-05-13T05:20:07.672Z,4.37
2019-05-13T05:23:11.298Z,4.97
2019-05-13T05:25:48.309Z,5.03
2019-05-13T05:28:36.613Z,4.75
2019-05-13T05:31:16.985Z,5.30
2019-05-13T05:34:05.708Z,4.60
2019-05-13T05:36:36.505Z,5.10
2019-05-13T05:39:22.415Z,4.60
2019-05-13T05:41:53.288Z,5.08
2019-05-13T05:44:25.325Z,4.60
2019-05-13T05:46:56.218Z,4.35
2019-05-13T05:49:26.696Z,4.28
2019-05-13T05:52:06.980Z,5.60
2019-05-13T05:54:38.233Z,4.28
2019-05-13T05:57:09.139Z,4.57
2019-05-13T05:59:38.493Z,3.35
2019-05-13T06:02:08.089Z,4.37
2019-05-13T06:04:36.779Z,4.50
2019-05-13T06:07:05.716Z,3.72
2019-05-13T06:09:34.234Z,3.95
2019-05-13T06:12:02.892Z,4.20
2019-05-13T06:14:32.750Z,4.20
2019-05-13T06:17:02.675Z,3.70
2019-05-13T06:19:32.234Z,3.45
2019-05-13T06:22:02.372Z,3.60
2019-05-13T06:24:31.487Z,3.40
2019-05-13T06:27:01.499Z,4.47
2019-05-13T06:29:31.714Z,4.30
2019-05-13T06:32:17.087Z,4.28
2019-05-13T06:34:32.667Z,3.87
2019-05-13T06:37:01.959Z,4.30
2019-05-13T06:39:31.705Z,3.58
2019-05-13T06:42:02.866Z,3.58
2019-05-13T06:44:31.675Z,3.72
2019-05-13T06:47:02.404Z,4.65
2019-05-13T06:49:32.229Z,4.40
2019-05-13T06:52:01.665Z,3.47
2019-05-13T06:54:32.944Z,4.08
2019-05-13T06:57:04.389Z,3.65
2019-05-13T06:59:31.791Z,4.55
2019-05-13T07:02:02.231Z,3.70
2019-05-13T07:04:32.615Z,3.60
2019-05-13T07:07:12.301Z,4.05
2019-05-13T07:09:32.504Z,3.95
2019-05-13T07:12:02.974Z,4.05
2019-05-13T07:14:32.526Z,3.92
2019-05-13T07:17:02.228Z,3.58
2019-05-13T07:19:32.378Z,4.08
2019-05-13T07:22:02.844Z,4.95
2019-05-13T07:24:32.437Z,3.60
2019-05-13T07:27:02.095Z,4.30
2019-05-13T07:29:32.598Z,4.03
2019-05-13T07:32:01.839Z,3.95
2019-05-13T07:34:33.702Z,4.08
2019-05-13T07:37:01.981Z,4.25
2019-05-13T07:39:32.686Z,3.47
2019-05-13T07:42:05.394Z,3.98
2019-05-13T07:44:32.586Z,3.33
2019-05-13T07:47:03.403Z,3.30
2019-05-13T07:49:31.750Z,3.42
2019-05-13T07:52:01.569Z,4.00
2019-05-13T07:54:33.087Z,3.10
2019-05-13T07:57:01.845Z,2.98
2019-05-13T07:59:31.849Z,3.25
2019-05-13T08:02:02.103Z,3.15
2019-05-13T08:04:33.562Z,3.45
2019-05-13T08:07:02.242Z,3.00
2019-05-13T08:09:31.919Z,3.30
2019-05-13T08:12:10.146Z,2.92
2019-05-13T08:14:32.767Z,3.25
2019-05-13T08:17:02.547Z,3.55
2019-05-13T08:19:32.535Z,2.95
2019-05-13T08:22:02.297Z,2.75
2019-05-13T08:24:31.618Z,3.30
2019-05-13T08:27:01.980Z,2.60
2019-05-13T08:29:32.863Z,2.60
2019-05-13T08:32:02.865Z,3.52
2019-05-13T08:34:32.901Z,2.87
2019-05-13T08:37:02.877Z,2.83
2019-05-13T08:39:35.905Z,3.02
2019-05-13T08:42:12.947Z,2.58
2019-05-13T08:44:32.630Z,2.72
2019-05-13T08:47:03.209Z,3.02
2019-05-13T08:49:32.477Z,2.50
2019-05-13T08:52:02.083Z,3.08
2019-05-13T08:54:32.916Z,3.08
2019-05-13T08:57:02.984Z,2.83
2019-05-13T08:59:31.942Z,2.80
2019-05-13T09:02:03.170Z,2.50
2019-05-13T09:04:31.576Z,3.00
2019-05-13T09:07:02.166Z,2.62
2019-05-13T09:09:31.723Z,3.20
2019-05-13T09:12:02.397Z,2.77
2019-05-13T09:14:32.383Z,2.60
2019-05-13T09:17:01.983Z,2.85
2019-05-13T09:19:32.341Z,2.08
2019-05-13T09:22:03.130Z,2.08
2019-05-13T09:24:37.190Z,2.50
2019-05-13T09:27:02.140Z,2.33
2019-05-13T09:29:32.306Z,2.37
2019-05-13T09:32:03.846Z,2.08
2019-05-13T09:34:32.850Z,2.08
2019-05-13T09:37:02.883Z,2.33
2019-05-13T09:39:32.461Z,2.20
2019-05-13T09:42:02.580Z,2.35
2019-05-13T09:44:32.801Z,2.08
2019-05-13T09:47:02.561Z,2.20
2019-05-13T09:49:32.998Z,2.30
2019-05-13T09:52:02.053Z,2.10
2019-05-13T09:54:32.597Z,2.27
2019-05-13T09:57:01.818Z,2.05
2019-05-13T09:59:31.833Z,2.05
2019-05-13T10:02:02.956Z,2.00
2019-05-13T10:04:31.829Z,2.50
2019-05-13T10:07:02.249Z,2.40
2019-05-13T10:09:32.742Z,1.98
2019-05-13T10:12:03.306Z,2.33
2019-05-13T10:14:32.727Z,2.22
2019-05-13T10:17:06.168Z,2.70
2019-05-13T10:19:32.482Z,2.67
2019-05-13T10:22:01.417Z,2.22
2019-05-13T10:24:32.355Z,2.10
2019-05-13T10:27:02.350Z,2.90
2019-05-13T10:29:32.129Z,2.92
2019-05-13T10:32:02.625Z,2.70
2019-05-13T10:34:32.049Z,3.10
2019-05-13T10:37:02.062Z,2.42
2019-05-13T10:39:31.422Z,2.80
2019-05-13T10:42:03.052Z,2.67
2019-05-13T10:44:30.236Z,2.70
2019-05-13T10:46:58.681Z,2.08
2019-05-13T10:49:27.164Z,2.40
2019-05-13T10:51:55.614Z,1.40
2019-05-13T10:54:24.103Z,1.02
2019-05-13T10:56:56.117Z,1.30
2019-05-13T10:59:23.215Z,2.10
2019-05-13T11:05:32.887Z,1.22
2019-05-13T11:08:02.017Z,1.20
2019-05-13T11:10:32.789Z,1.12
2019-05-13T11:13:01.654Z,1.27
2019-05-13T11:15:32.730Z,1.20
2019-05-13T11:18:03.074Z,1.50
2019-05-13T11:20:32.364Z,1.35
2019-05-13T11:23:02.342Z,1.50
2019-05-13T11:25:32.425Z,1.32
2019-05-13T11:28:01.636Z,1.30
2019-05-13T11:30:31.979Z,1.30
2019-05-13T11:33:02.255Z,1.42
2019-05-13T11:35:31.933Z,1.30
2019-05-13T11:38:01.650Z,1.90
2019-05-13T11:40:31.839Z,1.62
2019-05-13T11:43:01.718Z,1.80
2019-05-13T11:45:31.608Z,1.70
2019-05-13T11:48:02.332Z,1.75
2019-05-13T11:50:30.388Z,1.70
2019-05-13T11:52:58.874Z,2.08
2019-05-13T11:55:27.400Z,1.80
2019-05-13T11:57:56.041Z,1.50
2019-05-13T12:00:47.260Z,1.60
2019-05-13T12:03:16.242Z,1.30
2019-05-13T12:05:45.338Z,1.30
2019-05-13T12:08:13.986Z,1.70
2019-05-13T12:10:43.959Z,1.60
2019-05-13T12:13:12.769Z,1.47
2019-05-13T12:15:48.725Z,1.82
2019-05-13T12:18:12.628Z,1.35
2019-05-13T12:20:42.745Z,1.67
2019-05-13T12:23:13.025Z,1.90
2019-05-13T12:25:43.758Z,1.95
2019-05-13T12:28:11.855Z,1.50
2019-05-13T12:30:41.773Z,1.37
2019-05-13T12:33:13.504Z,1.55
2019-05-13T12:35:40.645Z,1.50
2019-05-13T12:38:12.867Z,1.80
2019-05-13T12:40:42.615Z,1.30
2019-05-13T12:43:12.641Z,1.80
2019-05-13T12:45:43.230Z,1.70
2019-05-13T12:48:13.668Z,1.47
2019-05-13T12:50:43.186Z,1.40
2019-05-13T12:53:12.784Z,1.75
2019-05-13T12:55:40.872Z,1.42
2019-05-13T12:58:09.667Z,1.47
2019-05-13T13:00:42.818Z,1.20
2019-05-13T13:03:13.063Z,1.90
2019-05-13T13:05:43.125Z,1.57
2019-05-13T13:08:24.025Z,1.40
2019-05-13T13:10:42.347Z,1.40
2019-05-13T13:13:11.009Z,1.60
2019-05-13T13:15:43.471Z,1.57
2019-05-13T13:18:13.939Z,1.80
2019-05-13T13:20:42.260Z,1.60
2019-05-13T13:23:12.550Z,1.60
2019-05-13T13:25:44.198Z,1.32
2019-05-13T13:28:15.032Z,1.62
2019-05-13T13:30:43.874Z,1.60
2019-05-13T13:33:15.126Z,1.47
2019-05-13T13:35:45.188Z,1.52
2019-05-13T13:38:11.467Z,1.55
2019-05-13T13:40:40.790Z,1.45
2019-05-13T13:43:12.314Z,1.20
2019-05-13T13:48:13.394Z,1.85
2019-05-13T13:50:44.309Z,1.22
2019-05-13T13:53:14.041Z,1.32
2019-05-13T13:55:44.249Z,1.40
2019-05-13T13:58:14.336Z,1.20
2019-05-13T14:00:55.957Z,1.60
2019-05-13T14:03:12.571Z,1.55
2019-05-13T14:05:42.883Z,1.52
2019-05-13T14:08:12.504Z,1.30
2019-05-13T14:10:42.041Z,1.37
2019-05-13T14:13:12.505Z,1.57
2019-05-13T14:15:41.792Z,1.42
2019-05-13T14:18:11.474Z,1.32
2019-05-13T14:20:42.699Z,1.60
2019-05-13T14:23:12.621Z,1.27
2019-05-13T14:25:42.014Z,1.40
2019-05-13T14:28:10.684Z,1.42
2019-05-13T14:30:39.168Z,1.50
2019-05-13T14:33:07.618Z,1.50
2019-05-13T14:35:36.165Z,1.80
2019-05-13T14:38:04.695Z,1.42
2019-05-13T14:40:33.175Z,1.35
2019-05-13T14:43:03.667Z,1.20
2019-05-13T14:45:32.005Z,2.80
2019-05-13T14:48:01.674Z,1.92
2019-05-13T14:50:31.919Z,1.77
2019-05-13T14:53:01.556Z,1.45
2019-05-13T15:10:02.449Z,1.67
2019-05-13T15:12:32.281Z,1.30
2019-05-13T15:15:01.759Z,1.25
2019-05-13T15:17:32.428Z,1.25
2019-05-13T15:20:01.850Z,1.20
2019-05-13T15:22:31.959Z,1.30
2019-05-13T15:25:02.773Z,1.72
2019-05-13T15:27:31.668Z,1.45
2019-05-13T15:30:14.394Z,1.52
2019-05-13T15:32:32.583Z,1.30
2019-05-13T15:35:02.248Z,1.30
2019-05-13T15:37:32.120Z,1.70
2019-05-13T15:40:02.315Z,1.45
2019-05-13T15:42:31.874Z,1.37
2019-05-13T15:45:01.818Z,1.22
2019-05-13T15:47:31.135Z,1.22
2019-05-13T15:50:02.150Z,1.30
2019-05-13T15:52:31.690Z,1.10
2019-05-13T15:55:01.404Z,1.20
2019-05-13T15:57:31.870Z,1.30
2019-05-13T16:00:01.949Z,1.27
2019-05-13T16:02:31.394Z,1.20
2019-05-13T16:05:02.245Z,1.20
2019-05-13T16:07:30.393Z,1.37
2019-05-13T16:09:59.116Z,1.30
2019-05-13T16:12:31.866Z,1.25
2019-05-13T16:15:01.735Z,1.40
2019-05-13T16:17:38.783Z,1.27
2019-05-13T16:20:01.956Z,1.62
2019-05-13T16:22:31.553Z,1.42
2019-05-13T16:25:01.515Z,1.50
2019-05-13T16:27:31.149Z,1.50
2019-05-13T16:30:02.257Z,1.67
2019-05-13T16:32:31.885Z,1.60
2019-05-13T16:35:02.697Z,1.40
2019-05-13T16:37:31.454Z,1.47
2019-05-13T16:40:00.203Z,1.57
2019-05-13T16:42:28.700Z,1.60
2019-05-13T16:44:57.267Z,1.60
2019-05-13T16:47:25.755Z,1.72
2019-05-13T16:49:54.333Z,1.65
2019-05-13T16:52:23.156Z,1.45
2019-05-13T16:54:53.245Z,1.42
2019-05-13T16:57:22.357Z,1.92
2019-05-13T16:59:51.713Z,1.70
2019-05-13T17:02:20.641Z,1.80
2019-05-13T17:04:49.210Z,1.82
2019-05-13T17:07:17.957Z,1.85
2019-05-13T17:09:46.463Z,1.80
2019-05-13T17:12:15.876Z,1.77
2019-05-13T17:14:44.876Z,1.65
2019-05-13T17:17:13.628Z,1.42
2019-05-13T17:19:42.439Z,1.60
2019-05-13T17:22:10.977Z,1.47
2019-05-13T17:24:42.472Z,1.60
2019-05-13T17:27:11.985Z,1.60
2019-05-13T17:29:40.144Z,1.55
2019-05-13T17:32:08.757Z,1.50
2019-05-13T17:34:37.547Z,1.82
2019-05-13T17:37:06.120Z,1.70
2019-05-13T17:39:34.853Z,2.05
2019-05-13T17:42:03.482Z,1.92
2019-05-13T17:44:32.223Z,1.92
2019-05-13T17:47:01.655Z,1.75
2019-05-13T17:49:31.837Z,1.52
2019-05-13T17:52:02.483Z,1.60
2019-05-13T17:54:31.836Z,1.70
2019-05-13T17:57:01.893Z,1.85
2019-05-13T17:59:31.465Z,1.70
2019-05-13T18:02:02.561Z,1.57
2019-05-13T18:04:31.423Z,1.67
2019-05-13T18:07:01.739Z,1.70
2019-05-13T18:09:31.885Z,1.70
2019-05-13T18:12:02.379Z,1.65
2019-05-13T18:14:31.157Z,1.60
2019-05-13T18:17:02.158Z,1.70
2019-05-13T18:19:31.673Z,1.70
2019-05-13T18:22:02.208Z,1.62
2019-05-13T18:24:32.047Z,1.42
2019-05-13T18:27:01.469Z,1.62
2019-05-13T18:29:31.573Z,1.60
2019-05-13T18:32:02.017Z,1.30
2019-05-13T18:34:32.215Z,1.77
2019-05-13T18:37:02.373Z,1.67
2019-05-13T18:39:32.276Z,1.80
2019-05-13T18:42:01.211Z,1.60
2019-05-13T18:44:31.719Z,1.50
2019-05-13T18:47:01.468Z,1.77
2019-05-13T18:49:31.763Z,1.30
2019-05-13T18:52:00.971Z,1.42
2019-05-13T18:54:31.563Z,1.27
2019-05-13T18:57:01.669Z,1.40
2019-05-13T18:59:32.246Z,1.70
2019-05-13T19:02:01.672Z,1.45
2019-05-13T19:04:31.261Z,1.30
2019-05-13T19:07:02.397Z,1.55
2019-05-13T19:09:31.139Z,1.50
2019-05-13T19:12:01.413Z,1.50
2019-05-13T19:14:31.762Z,1.40
2019-05-13T19:17:00.586Z,1.90
2019-05-13T19:19:31.502Z,1.60
2019-05-13T19:22:01.934Z,1.30
2019-05-13T19:24:31.252Z,1.55
2019-05-13T19:27:01.669Z,1.90
2019-05-13T19:29:31.859Z,1.50
2019-05-13T19:32:01.773Z,1.47
2019-05-13T19:34:32.284Z,1.82
2019-05-13T19:37:02.369Z,1.37
2019-05-13T19:39:31.461Z,1.42
2019-05-13T19:42:00.101Z,1.65
2019-05-13T19:44:28.742Z,1.72
2019-05-13T19:46:57.391Z,1.50
2019-05-13T19:49:32.589Z,1.40
2019-05-13T19:51:56.669Z,1.40
2019-05-13T19:54:25.354Z,1.60
2019-05-13T19:56:54.041Z,1.77
2019-05-13T19:59:22.714Z,1.50
2019-05-13T20:01:51.800Z,1.20
2019-05-13T20:04:21.842Z,1.37
2019-05-13T20:06:51.935Z,1.65
2019-05-13T20:09:21.558Z,1.60
2019-05-13T20:11:55.067Z,1.47
2019-05-13T20:14:22.428Z,1.35
2019-05-13T20:16:52.435Z,1.42
2019-05-13T20:19:22.324Z,1.45
2019-05-13T20:21:51.822Z,1.60
2019-05-13T20:24:21.938Z,1.80
2019-05-13T20:26:52.160Z,1.52
2019-05-13T20:29:21.018Z,1.50
2019-05-13T20:31:51.712Z,1.62
2019-05-13T20:34:22.051Z,1.50
2019-05-13T20:36:51.598Z,1.50
2019-05-13T20:39:22.429Z,1.50
2019-05-13T20:41:55.564Z,1.60
2019-05-13T20:44:22.131Z,1.47
2019-05-13T20:46:51.844Z,1.30
2019-05-13T20:49:21.831Z,1.30
2019-05-13T20:51:51.671Z,1.60
2019-05-13T20:54:22.056Z,1.40
2019-05-13T20:56:51.790Z,1.30
2019-05-13T20:59:21.587Z,1.12
2019-05-13T21:01:51.131Z,1.27
2019-05-13T21:04:21.544Z,1.37
2019-05-13T21:06:51.564Z,1.35
2019-05-13T21:09:20.581Z,1.45
2019-05-13T21:11:51.332Z,1.20
2019-05-13T21:14:21.602Z,1.42
2019-05-13T21:16:49.691Z,1.70
2019-05-13T21:19:18.186Z,1.60
2019-05-13T21:21:46.769Z,1.60
2019-05-13T21:24:15.270Z,1.87
2019-05-13T21:26:43.831Z,2.55
2019-05-13T21:29:12.564Z,2.08
2019-05-13T21:31:41.562Z,2.12
2019-05-13T21:34:11.910Z,2.10
2019-05-13T21:36:41.220Z,2.20
2019-05-13T21:39:12.234Z,2.02
2019-05-13T21:41:41.285Z,1.60
2019-05-13T21:44:11.984Z,1.75
2019-05-13T21:46:41.111Z,1.77
2019-05-13T21:49:11.863Z,1.87
2019-05-13T21:51:41.748Z,1.70
2019-05-13T21:54:11.929Z,1.47
2019-05-13T21:56:42.656Z,1.80
2019-05-13T21:59:11.000Z,1.90
2019-05-13T22:01:42.064Z,2.12
2019-05-13T22:04:12.147Z,2.05
2019-05-13T22:06:40.364Z,1.87
2019-05-13T22:09:11.756Z,1.80
2019-05-13T22:11:41.961Z,2.20
2019-05-13T22:14:11.432Z,2.00
2019-05-13T22:16:41.309Z,2.15
2019-05-13T22:19:12.308Z,1.87
2019-05-13T22:21:42.364Z,1.80
2019-05-13T22:24:11.704Z,2.00
2019-05-13T22:26:42.025Z,1.60
2019-05-13T22:29:11.089Z,2.02
2019-05-13T22:31:41.828Z,1.72
2019-05-13T22:34:12.100Z,1.92
2019-05-13T22:36:40.275Z,2.30
2019-05-13T22:39:11.340Z,2.22
2019-05-13T22:41:39.118Z,2.25
2019-05-13T22:44:07.674Z,1.90
2019-05-13T22:46:36.176Z,1.82
2019-05-13T22:49:04.676Z,1.95
2019-05-13T22:51:33.248Z,2.10
2019-05-13T22:54:02.000Z,2.00
2019-05-13T22:56:31.926Z,1.87
2019-05-13T22:59:02.080Z,2.35
2019-05-13T23:01:32.375Z,2.25
2019-05-13T23:04:02.158Z,2.10
2019-05-13T23:06:32.171Z,2.20
2019-05-13T23:09:01.749Z,2.40
2019-05-13T23:11:31.058Z,2.50
2019-05-13T23:14:09.690Z,2.05
2019-05-13T23:16:31.614Z,2.30
2019-05-13T23:19:00.496Z,2.27
2019-05-13T23:21:31.143Z,2.20
2019-05-13T23:24:00.127Z,2.47
2019-05-13T23:26:31.526Z,2.25
2019-05-13T23:29:01.391Z,2.25
2019-05-13T23:31:30.468Z,2.10
2019-05-13T23:34:01.273Z,2.30
2019-05-13T23:36:31.492Z,2.20
2019-05-13T23:39:01.065Z,2.42
2019-05-13T23:41:30.045Z,2.20
2019-05-13T23:43:58.692Z,2.40
2019-05-13T23:46:27.183Z,2.35
2019-05-13T23:48:55.827Z,2.15
2019-05-13T23:51:24.469Z,2.40
2019-05-13T23:53:53.163Z,2.40
2019-05-13T23:56:21.935Z,2.40
2019-05-13T23:58:51.939Z,2.40
